createdAt,value
2023-01-15T00:01:44.665Z,0.107
2023-01-15T00:06:44.671Z,0.096
2023-01-15T00:11:48.406Z,0.107
2023-01-15T00:16:44.193Z,0.115
2023-01-15T00:21:44.789Z,0.108
2023-01-15T00:26:44.204Z,0.085
2023-01-15T00:31:50.245Z,0.096
2023-01-15T00:36:44.827Z,0.086
2023-01-15T00:41:44.745Z,0.095
2023-01-15T00:46:44.369Z,0.087
2023-01-15T00:51:55.637Z,0.114
2023-01-15T00:56:44.869Z,0.091
2023-01-15T01:01:49.721Z,0.092
2023-01-15T01:07:04.180Z,0.102
2023-01-15T01:11:44.783Z,0.103
2023-01-15T01:16:44.967Z,0.098
2023-01-15T01:21:44.812Z,0.095
2023-01-15T01:26:44.316Z,0.103
2023-01-15T01:31:45.609Z,0.108
2023-01-15T01:36:44.974Z,0.091
2023-01-15T01:41:49.675Z,0.096
2023-01-15T01:46:44.327Z,0.107
2023-01-15T01:51:44.364Z,0.095
2023-01-15T01:56:44.356Z,0.116
2023-01-15T02:01:49.388Z,0.101
2023-01-15T02:06:44.394Z,0.108
2023-01-15T02:11:44.392Z,0.104
2023-01-15T02:16:44.932Z,0.105
2023-01-15T02:21:50.438Z,0.084
2023-01-15T02:26:44.930Z,0.054
2023-01-15T02:31:44.438Z,0.033
2023-01-15T02:36:44.421Z,0.031
2023-01-15T02:41:49.263Z,0.027
2023-01-15T02:46:44.442Z,0.018
2023-01-15T02:51:49.882Z,0.026
2023-01-15T02:56:44.493Z,0.019
2023-01-15T03:01:45.255Z,0.019
2023-01-15T03:06:44.491Z,0.011
2023-01-15T03:11:44.640Z,0.007
2023-01-15T03:16:47.096Z,0.007
2023-01-15T03:21:45.151Z,0.003
2023-01-15T03:26:44.519Z,0
2023-01-15T03:31:49.985Z,0
2023-01-15T03:36:44.558Z,0
2023-01-15T03:41:44.637Z,0
2023-01-15T03:46:45.254Z,0
2023-01-15T03:51:44.575Z,0
2023-01-15T03:56:50.003Z,0
2023-01-15T04:01:44.722Z,0
2023-01-15T04:07:02.678Z,0
2023-01-15T04:11:44.594Z,0
2023-01-15T04:16:46.936Z,0
2023-01-15T04:21:50.050Z,0
2023-01-15T04:26:45.132Z,0
2023-01-15T04:31:45.256Z,0
2023-01-15T04:36:44.668Z,0
2023-01-15T04:41:45.402Z,0
2023-01-15T04:46:45.295Z,0
2023-01-15T04:51:44.720Z,0
2023-01-15T04:56:45.324Z,0
2023-01-15T05:01:58.300Z,0
2023-01-15T05:06:44.695Z,0
2023-01-15T05:11:45.206Z,0
2023-01-15T05:16:50.650Z,0
2023-01-15T05:21:45.337Z,0
2023-01-15T05:26:45.263Z,0
2023-01-15T05:31:45.501Z,0
2023-01-15T05:36:45.357Z,0
2023-01-15T05:41:44.754Z,0
2023-01-15T05:46:44.785Z,0
2023-01-15T05:51:45.311Z,0
2023-01-15T05:56:50.285Z,0
2023-01-15T06:01:44.804Z,0
2023-01-15T06:06:50.769Z,0
2023-01-15T06:11:45.423Z,0
2023-01-15T06:16:45.556Z,0
2023-01-15T06:21:44.826Z,0
2023-01-15T06:26:44.890Z,0
2023-01-15T06:31:45.526Z,0
2023-01-15T06:36:45.368Z,0
2023-01-15T06:41:45.518Z,0
2023-01-15T06:46:45.528Z,0
2023-01-15T06:51:45.395Z,0
2023-01-15T06:56:44.901Z,0
2023-01-15T07:01:44.966Z,0
2023-01-15T07:06:45.527Z,0
2023-01-15T07:11:45.543Z,0
2023-01-15T07:17:03.031Z,0
2023-01-15T07:21:45.552Z,0
2023-01-15T07:26:51.589Z,0
2023-01-15T07:31:50.896Z,0
2023-01-15T07:36:45.576Z,0
2023-01-15T07:41:44.969Z,0
2023-01-15T07:46:44.986Z,0
2023-01-15T07:51:45.004Z,0
2023-01-15T07:56:51.074Z,0
2023-01-15T08:01:51.450Z,0
2023-01-15T08:06:45.010Z,0
2023-01-15T08:11:45.646Z,0
2023-01-15T08:16:45.553Z,0
2023-01-15T08:21:45.050Z,0
2023-01-15T08:26:45.049Z,0
2023-01-15T08:31:50.520Z,0
2023-01-15T08:36:51.110Z,0
2023-01-15T08:41:45.609Z,0
2023-01-15T08:46:45.703Z,0
2023-01-15T08:51:45.709Z,0
2023-01-15T08:57:00.188Z,0
2023-01-15T09:01:51.212Z,0
2023-01-15T09:06:45.815Z,0
2023-01-15T09:11:45.413Z,0
2023-01-15T09:16:45.709Z,0
2023-01-15T09:21:45.659Z,0
2023-01-15T09:26:45.168Z,0
2023-01-15T09:33:46.243Z,0
2023-01-15T09:37:19.427Z,0
2023-01-15T09:42:11.614Z,0
2023-01-15T09:46:45.705Z,0
2023-01-15T09:51:45.729Z,0
2023-01-15T09:57:32.740Z,0
2023-01-15T10:01:45.729Z,0
2023-01-15T10:06:45.746Z,0
2023-01-15T10:11:45.754Z,0
2023-01-15T10:16:51.889Z,0
2023-01-15T10:21:45.259Z,0
2023-01-15T10:26:45.283Z,0
2023-01-15T10:31:45.785Z,0
2023-01-15T10:36:50.722Z,0
2023-01-15T10:41:45.903Z,0
2023-01-15T10:46:45.299Z,0
2023-01-15T10:51:45.327Z,0
2023-01-15T10:56:45.939Z,0
2023-01-15T11:01:45.964Z,0
2023-01-15T11:06:45.887Z,0
2023-01-15T11:11:46.597Z,0
2023-01-15T11:16:45.353Z,0
2023-01-15T11:21:45.868Z,0
2023-01-15T11:26:51.907Z,0
2023-01-15T11:31:45.985Z,0
2023-01-15T11:36:45.405Z,0
2023-01-15T11:41:45.401Z,0
2023-01-15T11:46:51.358Z,0
2023-01-15T11:52:28.254Z,0
2023-01-15T11:56:46.100Z,0
2023-01-15T12:01:46.043Z,0
2023-01-15T12:06:46.958Z,0
2023-01-15T12:11:45.476Z,0
2023-01-15T12:16:45.996Z,0
2023-01-15T12:21:45.467Z,0
2023-01-15T12:26:45.478Z,0
2023-01-15T12:31:45.611Z,0
2023-01-15T12:41:46.111Z,0
2023-01-15T12:46:46.519Z,0
2023-01-15T12:51:45.537Z,0
2023-01-15T12:56:46.046Z,0
2023-01-15T13:01:45.679Z,0
2023-01-15T13:06:50.971Z,0
2023-01-15T13:11:45.568Z,0
2023-01-15T13:16:46.078Z,0
2023-01-15T13:21:46.188Z,0
2023-01-15T13:26:45.605Z,0
2023-01-15T13:31:45.698Z,0
2023-01-15T13:36:45.816Z,0
2023-01-15T13:41:45.614Z,0
2023-01-15T13:46:45.628Z,0
2023-01-15T13:51:46.236Z,0
2023-01-15T13:56:46.269Z,0
2023-01-15T14:01:46.304Z,0
2023-01-15T14:06:46.186Z,0
2023-01-15T14:11:48.084Z,0
2023-01-15T14:16:46.370Z,0.001
2023-01-15T14:21:46.221Z,0.005
2023-01-15T14:26:46.269Z,0.007
2023-01-15T14:31:45.746Z,0.01
2023-01-15T14:36:51.657Z,0.011
2023-01-15T14:41:46.231Z,0.019
2023-01-15T14:46:45.727Z,0.009
2023-01-15T14:51:45.737Z,0.026
2023-01-15T14:56:45.759Z,0.029
2023-01-15T15:01:45.951Z,0.031
2023-01-15T15:06:45.803Z,0.055
2023-01-15T15:11:46.502Z,0.031
2023-01-15T15:16:45.842Z,0.035
2023-01-15T15:21:46.406Z,0.016
2023-01-15T15:26:45.803Z,0.02
2023-01-15T15:31:46.406Z,0.011
2023-01-15T15:36:46.446Z,0.004
2023-01-15T15:41:46.328Z,0.016
2023-01-15T15:46:45.843Z,0.009
2023-01-15T15:51:46.358Z,0.015
2023-01-15T15:56:45.863Z,0.015
2023-01-15T16:01:46.465Z,0.042
2023-01-15T16:06:46.511Z,0.017
2023-01-15T16:11:46.387Z,0.036
2023-01-15T16:16:51.232Z,0.041
2023-01-15T16:21:45.891Z,0.035
2023-01-15T16:26:51.241Z,0.042
2023-01-15T16:31:45.923Z,0.043
2023-01-15T16:36:45.944Z,0.023
2023-01-15T16:41:45.937Z,0.025
2023-01-15T16:46:45.937Z,0.052
2023-01-15T16:51:45.955Z,0.085
2023-01-15T16:56:46.577Z,0.099
2023-01-15T17:01:46.118Z,0.093
2023-01-15T17:06:45.979Z,0.106
2023-01-15T17:11:46.951Z,0.103
2023-01-15T17:16:46.498Z,0.097
2023-01-15T17:21:45.997Z,0.114
2023-01-15T17:26:46.014Z,0.112
2023-01-15T17:31:47.138Z,0.099
2023-01-15T17:36:46.052Z,0.094
2023-01-15T17:41:46.686Z,0.11
2023-01-15T17:46:46.755Z,0.098
2023-01-15T17:51:46.052Z,0.1
2023-01-15T17:56:46.700Z,0.089
2023-01-15T18:01:46.226Z,0.097
2023-01-15T18:06:46.723Z,0.089
2023-01-15T18:11:46.118Z,0.113
2023-01-15T18:16:46.103Z,0.092
2023-01-15T18:21:46.750Z,0.101
2023-01-15T18:27:01.197Z,0.088
2023-01-15T18:31:46.123Z,0.116
2023-01-15T18:36:46.140Z,0.088
2023-01-15T18:41:46.144Z,0.105
2023-01-15T18:46:46.813Z,0.085
2023-01-15T18:51:46.161Z,0.095
2023-01-15T18:56:46.175Z,0.101
2023-01-15T19:01:46.244Z,0.106
2023-01-15T19:06:46.188Z,0.113
2023-01-15T19:11:48.014Z,0.098
2023-01-15T19:16:46.217Z,0.099
2023-01-15T19:21:46.344Z,0.095
2023-01-15T19:26:46.247Z,0.1
2023-01-15T19:31:46.285Z,0.101
2023-01-15T19:36:46.843Z,0.11
2023-01-15T19:41:46.258Z,0.094
2023-01-15T19:46:46.904Z,0.114
2023-01-15T19:51:46.888Z,0.077
2023-01-15T19:56:46.909Z,0.123
2023-01-15T20:01:46.482Z,0.095
2023-01-15T20:06:46.305Z,0.1
2023-01-15T20:11:46.299Z,0.097
2023-01-15T20:16:46.825Z,0.105
2023-01-15T20:21:46.324Z,0.095
2023-01-15T20:26:46.329Z,0.114
2023-01-15T20:31:46.868Z,0.103
2023-01-15T20:36:46.844Z,0.095
2023-01-15T20:41:46.369Z,0.096
2023-01-15T20:46:46.866Z,0.103
2023-01-15T20:51:46.643Z,0.103
2023-01-15T20:56:46.905Z,0.085
2023-01-15T21:01:47.039Z,0.084
2023-01-15T21:06:46.416Z,0.099
2023-01-15T21:11:46.402Z,0.099
2023-01-15T21:16:46.502Z,0.088
2023-01-15T21:21:46.424Z,0.11
2023-01-15T21:26:46.939Z,0.05
2023-01-15T21:31:46.530Z,0.035
2023-01-15T21:36:46.465Z,0.033
2023-01-15T21:41:46.523Z,0.038
2023-01-15T21:46:47.106Z,0.035
2023-01-15T21:51:47.088Z,0.025
2023-01-15T21:56:51.915Z,0.02
2023-01-15T22:01:47.204Z,0.035
2023-01-15T22:06:47.111Z,0.035
2023-01-15T22:11:46.524Z,0.025
2023-01-15T22:16:46.592Z,0.074
2023-01-15T22:21:47.133Z,0.074
2023-01-15T22:26:46.586Z,0.088
2023-01-15T22:31:46.556Z,0.083
2023-01-15T22:36:48.981Z,0.102
2023-01-15T22:42:02.243Z,0.113
2023-01-15T22:46:47.190Z,0.112
2023-01-15T22:51:46.597Z,0.075
2023-01-15T22:56:54.462Z,0.038
2023-01-15T23:01:46.681Z,0.041
2023-01-15T23:06:46.611Z,0.031
2023-01-15T23:11:46.630Z,0.045
2023-01-15T23:16:47.276Z,0.045
2023-01-15T23:21:47.376Z,0.025
2023-01-15T23:26:47.258Z,0.035
2023-01-15T23:31:46.660Z,0.027
2023-01-15T23:36:46.699Z,0.026
2023-01-15T23:41:46.676Z,0.023
2023-01-15T23:46:48.190Z,0.027
2023-01-15T23:51:46.683Z,0.025
2023-01-15T23:56:46.833Z,0.015
